createdAt,value
2018-08-28T00:01:48.037Z,9.97
2018-08-28T00:04:14.945Z,9.37
2018-08-28T00:06:41.824Z,11.80
2018-08-28T00:09:08.744Z,12.17
2018-08-28T00:11:35.645Z,13.83
2018-08-28T00:14:02.562Z,13.47
2018-08-28T00:16:29.465Z,13.10
2018-08-28T00:18:56.381Z,14.17
2018-08-28T00:21:23.278Z,13.50
2018-08-28T00:23:50.184Z,9.27
2018-08-28T00:26:17.111Z,14.20
2018-08-28T00:28:44.000Z,11.77
2018-08-28T00:31:10.897Z,12.53
2018-08-28T00:33:37.812Z,10.80
2018-08-28T00:36:04.708Z,13.43
2018-08-28T00:38:31.610Z,14.40
2018-08-28T00:40:58.569Z,12.10
2018-08-28T00:43:25.481Z,12.47
2018-08-28T00:45:52.397Z,14.67
2018-08-28T00:48:19.493Z,16.50
2018-08-28T00:50:46.397Z,11.80
2018-08-28T00:53:13.304Z,14.73
2018-08-28T00:55:40.212Z,13.53
2018-08-28T00:58:07.125Z,9.37
2018-08-28T01:00:34.064Z,18.47
2018-08-28T01:03:01.065Z,13.67
2018-08-28T01:05:27.965Z,13.57
2018-08-28T01:07:54.864Z,14.77
2018-08-28T01:10:21.754Z,16.80
2018-08-28T01:12:48.836Z,13.53
2018-08-28T01:15:15.748Z,19.53
2018-08-28T01:17:42.628Z,15.00
2018-08-28T01:20:09.801Z,13.07
2018-08-28T01:22:36.740Z,17.30
2018-08-28T01:25:03.724Z,14.90
2018-08-28T01:27:30.636Z,19.63
2018-08-28T01:29:57.677Z,15.90
2018-08-28T01:32:24.573Z,15.17
2018-08-28T01:34:51.472Z,22.17
2018-08-28T01:37:18.366Z,16.43
2018-08-28T01:39:45.264Z,17.90
2018-08-28T01:42:12.201Z,13.80
2018-08-28T01:44:39.141Z,12.47
2018-08-28T01:47:06.194Z,12.57
2018-08-28T01:49:33.209Z,20.67
2018-08-28T01:52:00.090Z,15.53
2018-08-28T01:54:27.023Z,15.13
2018-08-28T01:56:53.903Z,19.30
2018-08-28T01:59:21.494Z,13.10
2018-08-28T02:01:49.058Z,18.60
2018-08-28T02:04:16.703Z,18.07
2018-08-28T02:06:44.314Z,13.10
2018-08-28T02:09:11.944Z,19.07
2018-08-28T02:11:39.543Z,15.03
2018-08-28T02:14:07.219Z,17.00
2018-08-28T02:16:34.762Z,15.50
2018-08-28T02:19:02.902Z,14.43
2018-08-28T02:21:30.480Z,12.40
2018-08-28T02:23:58.979Z,14.23
2018-08-28T02:26:26.670Z,16.17
2018-08-28T02:28:54.966Z,15.80
2018-08-28T02:31:22.555Z,17.57
2018-08-28T02:33:50.759Z,15.77
2018-08-28T02:36:19.408Z,18.07
2018-08-28T02:38:46.978Z,14.13
2018-08-28T02:41:15.063Z,15.57
2018-08-28T02:43:43.466Z,15.63
2018-08-28T02:46:11.057Z,14.97
2018-08-28T02:48:38.755Z,22.67
2018-08-28T02:51:06.316Z,15.63
2018-08-28T02:53:34.477Z,18.27
2018-08-28T02:56:03.174Z,21.93
2018-08-28T02:58:30.735Z,15.77
2018-08-28T03:00:58.329Z,22.63
2018-08-28T03:03:26.595Z,19.27
2018-08-28T03:05:54.170Z,18.77
2018-08-28T03:08:22.476Z,21.03
2018-08-28T03:10:50.106Z,17.73
2018-08-28T03:13:18.632Z,19.27
2018-08-28T03:15:46.333Z,20.33
2018-08-28T03:18:14.498Z,18.97
2018-08-28T03:20:42.277Z,22.20
2018-08-28T03:23:09.927Z,19.20
2018-08-28T03:25:37.628Z,22.90
2018-08-28T03:28:06.496Z,22.40
2018-08-28T03:30:34.235Z,24.87
2018-08-28T03:33:01.822Z,21.83
2018-08-28T03:35:31.243Z,21.60
2018-08-28T03:38:01.401Z,18.13
2018-08-28T03:40:29.164Z,22.50
2018-08-28T03:42:57.222Z,18.83
2018-08-28T03:45:24.876Z,16.63
2018-08-28T03:47:52.926Z,21.20
2018-08-28T03:50:20.581Z,18.97
2018-08-28T03:52:48.249Z,15.97
2018-08-28T03:55:15.990Z,17.23
2018-08-28T03:57:43.666Z,19.83
2018-08-28T04:00:11.907Z,22.80
2018-08-28T04:02:39.481Z,23.47
2018-08-28T04:05:07.139Z,20.90
2018-08-28T04:07:34.710Z,16.80
2018-08-28T04:10:02.792Z,21.23
2018-08-28T04:12:30.689Z,23.50
2018-08-28T04:14:59.230Z,24.47
2018-08-28T04:17:26.830Z,23.43
2018-08-28T04:19:54.462Z,18.57
2018-08-28T04:22:22.161Z,20.83
2018-08-28T04:24:49.790Z,17.93
2018-08-28T04:27:17.491Z,19.37
2018-08-28T04:29:45.068Z,17.23
2018-08-28T04:32:13.108Z,19.03
2018-08-28T04:34:41.048Z,20.23
2018-08-28T04:37:08.672Z,18.67
2018-08-28T04:39:36.388Z,24.30
2018-08-28T04:42:04.188Z,19.73
2018-08-28T04:44:31.712Z,18.00
2018-08-28T04:46:59.416Z,16.93
2018-08-28T04:49:27.917Z,20.97
2018-08-28T04:51:56.060Z,14.53
2018-08-28T04:54:23.759Z,16.70
2018-08-28T04:56:51.352Z,17.17
2018-08-28T04:59:19.606Z,20.23
2018-08-28T05:01:47.697Z,17.53
2018-08-28T05:04:16.336Z,16.47
2018-08-28T05:06:43.993Z,17.80
2018-08-28T05:09:11.618Z,18.77
2018-08-28T05:11:39.305Z,21.93
2018-08-28T05:14:07.021Z,18.40
2018-08-28T05:16:34.663Z,16.30
2018-08-28T05:19:02.271Z,23.13
2018-08-28T05:21:29.958Z,16.73
2018-08-28T05:23:57.714Z,23.33
2018-08-28T05:26:25.332Z,14.70
2018-08-28T05:28:53.322Z,20.30
2018-08-28T05:31:20.988Z,16.83
2018-08-28T05:33:49.152Z,16.27
2018-08-28T05:36:16.690Z,16.73
2018-08-28T05:38:44.926Z,21.87
2018-08-28T05:41:12.745Z,14.97
2018-08-28T05:43:40.474Z,17.67
2018-08-28T05:46:08.129Z,18.80
2018-08-28T05:48:35.801Z,17.90
2018-08-28T05:51:04.324Z,16.37
2018-08-28T05:53:31.943Z,16.23
2018-08-28T05:56:00.152Z,16.57
2018-08-28T05:58:27.773Z,15.87
2018-08-28T06:00:55.350Z,14.17
2018-08-28T06:03:23.051Z,14.23
2018-08-28T06:05:51.173Z,16.47
2018-08-28T06:08:19.831Z,12.83
2018-08-28T06:10:48.304Z,16.30
2018-08-28T06:13:15.894Z,11.77
2018-08-28T06:15:43.541Z,15.60
2018-08-28T06:18:11.216Z,12.93
2018-08-28T06:20:38.857Z,12.63
2018-08-28T06:23:07.177Z,12.67
2018-08-28T06:25:34.843Z,15.63
2018-08-28T06:28:02.483Z,16.67
2018-08-28T06:30:30.631Z,12.33
2018-08-28T06:32:58.211Z,15.07
2018-08-28T06:35:26.189Z,15.97
2018-08-28T06:37:55.546Z,16.13
2018-08-28T06:40:23.267Z,13.37
2018-08-28T06:42:51.055Z,12.27
2018-08-28T06:45:19.258Z,10.67
2018-08-28T06:47:46.885Z,9.97
2018-08-28T06:50:14.517Z,13.30
2018-08-28T06:52:42.635Z,10.20
2018-08-28T06:55:10.324Z,20.27
2018-08-28T06:57:38.043Z,14.50
2018-08-28T07:00:06.791Z,15.37
2018-08-28T07:02:35.043Z,10.83
2018-08-28T07:05:03.570Z,14.23
2018-08-28T07:07:31.262Z,13.97
2018-08-28T07:09:59.044Z,11.43
2018-08-28T07:12:27.263Z,11.33
2018-08-28T07:14:56.350Z,12.17
2018-08-28T07:17:24.002Z,11.00
2018-08-28T07:19:51.648Z,12.10
2018-08-28T07:22:20.596Z,11.17
2018-08-28T07:24:48.179Z,8.43
2018-08-28T07:27:17.887Z,12.93
2018-08-28T07:29:45.479Z,9.27
2018-08-28T07:32:13.165Z,9.03
2018-08-28T07:34:41.016Z,12.47
2018-08-28T07:37:08.682Z,9.80
2018-08-28T07:39:36.880Z,12.97
2018-08-28T07:42:04.526Z,11.07
2018-08-28T07:44:32.699Z,12.53
2018-08-28T07:47:04.621Z,12.07
2018-08-28T07:49:35.833Z,9.37
2018-08-28T07:52:04.078Z,8.43
2018-08-28T07:54:33.109Z,8.73
2018-08-28T07:57:03.099Z,9.47
2018-08-28T07:59:32.067Z,10.57
2018-08-28T08:01:59.739Z,10.50
2018-08-28T08:04:28.653Z,10.53
2018-08-28T08:06:56.973Z,8.23
2018-08-28T08:09:25.349Z,12.43
2018-08-28T08:11:53.047Z,11.70
2018-08-28T08:14:20.733Z,10.23
2018-08-28T08:16:55.326Z,9.73
2018-08-28T08:19:22.999Z,10.83
2018-08-28T08:21:50.613Z,10.37
2018-08-28T08:24:18.974Z,10.17
2018-08-28T08:26:46.662Z,7.63
2018-08-28T08:29:15.243Z,9.93
2018-08-28T08:31:42.850Z,10.67
2018-08-28T08:34:11.202Z,12.27
2018-08-28T08:36:38.825Z,13.97
2018-08-28T08:39:08.752Z,11.73
2018-08-28T08:41:37.751Z,9.87
2018-08-28T08:44:05.371Z,7.27
2018-08-28T08:46:32.994Z,8.43
2018-08-28T08:49:02.049Z,8.77
2018-08-28T08:51:29.650Z,9.70
2018-08-28T08:53:57.317Z,7.90
2018-08-28T08:56:24.896Z,7.90
2018-08-28T08:58:53.141Z,9.20
2018-08-28T09:01:21.800Z,10.43
2018-08-28T09:03:49.392Z,12.67
2018-08-28T09:06:16.926Z,6.83
2018-08-28T09:08:44.572Z,8.03
2018-08-28T09:11:12.837Z,11.20
2018-08-28T09:13:40.903Z,9.10
2018-08-28T09:16:08.499Z,6.57
2018-08-28T09:18:36.095Z,9.07
2018-08-28T09:21:05.181Z,8.20
2018-08-28T09:23:34.653Z,7.60
2018-08-28T09:26:04.047Z,8.17
2018-08-28T09:28:33.518Z,8.53
2018-08-28T09:31:04.913Z,6.60
2018-08-28T09:33:33.834Z,7.20
2018-08-28T09:36:03.305Z,6.23
2018-08-28T09:38:30.957Z,10.53
2018-08-28T09:41:02.597Z,8.23
2018-08-28T09:43:30.712Z,6.37
2018-08-28T09:45:59.277Z,7.97
2018-08-28T09:48:26.924Z,9.87
2018-08-28T09:50:54.551Z,15.47
2018-08-28T09:53:22.105Z,10.00
2018-08-28T09:55:49.728Z,13.17
2018-08-28T09:58:17.284Z,9.70
2018-08-28T10:00:50.402Z,7.87
2018-08-28T10:03:18.002Z,5.93
2018-08-28T10:05:45.637Z,8.90
2018-08-28T10:08:13.129Z,6.53
2018-08-28T10:10:41.269Z,4.60
2018-08-28T10:13:08.819Z,6.00
2018-08-28T10:15:36.479Z,5.33
2018-08-28T10:18:04.448Z,5.37
2018-08-28T10:20:33.524Z,4.63
2018-08-28T10:23:01.794Z,7.40
2018-08-28T10:25:31.415Z,5.87
2018-08-28T10:27:59.606Z,4.90
2018-08-28T10:30:28.129Z,5.30
2018-08-28T10:32:56.864Z,6.53
2018-08-28T10:35:24.591Z,4.13
2018-08-28T10:37:52.939Z,8.90
2018-08-28T10:40:21.533Z,5.93
2018-08-28T10:42:49.129Z,8.03
2018-08-28T10:45:16.715Z,4.67
2018-08-28T10:47:44.382Z,5.60
2018-08-28T10:50:12.104Z,4.80
2018-08-28T10:52:39.854Z,7.17
2018-08-28T10:55:07.596Z,6.03
2018-08-28T10:57:35.158Z,5.20
2018-08-28T11:00:02.887Z,6.57
2018-08-28T11:02:31.070Z,6.57
2018-08-28T11:04:58.691Z,4.80
2018-08-28T11:07:26.323Z,7.30
2018-08-28T11:09:53.884Z,5.10
2018-08-28T11:12:22.636Z,6.27
2018-08-28T11:14:50.219Z,6.50
2018-08-28T11:17:17.890Z,6.63
2018-08-28T11:19:45.510Z,4.77
2018-08-28T11:22:13.179Z,5.77
2018-08-28T11:24:40.732Z,4.87
2018-08-28T11:27:08.306Z,6.83
2018-08-28T11:29:35.936Z,5.90
2018-08-28T11:32:04.046Z,6.97
2018-08-28T11:34:31.649Z,6.97
2018-08-28T11:36:59.824Z,6.10
2018-08-28T11:39:27.901Z,6.97
2018-08-28T11:41:55.506Z,4.93
2018-08-28T11:44:23.990Z,9.10
2018-08-28T11:46:51.544Z,9.20
2018-08-28T11:49:19.748Z,4.97
2018-08-28T11:51:47.390Z,6.13
2018-08-28T11:54:14.969Z,5.80
2018-08-28T11:56:43.390Z,4.20
2018-08-28T11:59:11.663Z,4.57
2018-08-28T12:01:39.200Z,3.70
2018-08-28T12:04:07.870Z,4.80
2018-08-28T12:06:35.576Z,5.73
2018-08-28T12:09:03.373Z,7.10
2018-08-28T12:11:31.661Z,5.67
2018-08-28T12:13:59.256Z,4.50
2018-08-28T12:16:28.819Z,6.60
2018-08-28T12:18:56.506Z,5.03
2018-08-28T12:21:24.923Z,7.67
2018-08-28T12:23:52.991Z,7.87
2018-08-28T12:26:21.208Z,4.03
2018-08-28T12:28:49.315Z,4.60
2018-08-28T12:31:20.699Z,4.30
2018-08-28T12:33:48.783Z,3.87
2018-08-28T12:36:17.291Z,4.83
2018-08-28T12:38:44.857Z,4.43
2018-08-28T12:41:14.111Z,7.27
2018-08-28T12:43:42.661Z,6.23
2018-08-28T12:46:11.472Z,4.90
2018-08-28T12:48:41.377Z,5.03
2018-08-28T12:51:10.215Z,6.63
2018-08-28T12:53:39.331Z,3.77
2018-08-28T12:56:06.953Z,4.50
2018-08-28T12:58:34.514Z,4.43
2018-08-28T13:01:02.152Z,4.97
2018-08-28T13:03:29.707Z,4.10
2018-08-28T13:05:57.376Z,3.87
2018-08-28T13:08:24.961Z,7.33
2018-08-28T13:10:52.582Z,5.33
2018-08-28T13:13:20.837Z,4.87
2018-08-28T13:15:48.495Z,7.00
2018-08-28T13:18:16.073Z,5.63
2018-08-28T13:20:44.287Z,6.83
2018-08-28T13:23:11.960Z,6.03
2018-08-28T13:25:40.316Z,4.87
2018-08-28T13:28:08.514Z,7.30
2018-08-28T13:30:36.357Z,7.93
2018-08-28T13:33:03.955Z,5.63
2018-08-28T13:35:31.546Z,4.90
2018-08-28T13:37:59.202Z,6.83
2018-08-28T13:40:27.869Z,4.93
2018-08-28T13:42:56.571Z,4.93
2018-08-28T13:45:30.945Z,4.30
2018-08-28T13:47:57.868Z,7.80
2018-08-28T13:50:24.755Z,6.73
2018-08-28T13:52:51.668Z,5.57
2018-08-28T13:55:18.598Z,8.40
2018-08-28T13:57:45.529Z,7.47
2018-08-28T14:00:12.582Z,6.03
2018-08-28T14:02:39.405Z,5.93
2018-08-28T14:05:06.292Z,5.70
2018-08-28T14:07:33.192Z,5.93
2018-08-28T14:10:00.082Z,6.47
2018-08-28T14:12:27.017Z,6.33
2018-08-28T14:14:53.967Z,7.00
2018-08-28T14:17:20.822Z,6.00
2018-08-28T14:19:47.877Z,4.50
2018-08-28T14:22:14.849Z,10.37
2018-08-28T14:24:41.761Z,6.50
2018-08-28T14:27:08.708Z,5.20
2018-08-28T14:29:35.644Z,5.37
2018-08-28T14:32:02.742Z,5.47
2018-08-28T14:34:29.648Z,4.67
2018-08-28T14:36:56.560Z,5.33
2018-08-28T14:39:23.505Z,5.67
2018-08-28T14:41:50.427Z,4.27
2018-08-28T14:44:17.347Z,6.50
2018-08-28T14:46:44.280Z,5.77
2018-08-28T14:49:11.226Z,5.17
2018-08-28T14:51:38.163Z,5.83
2018-08-28T14:54:05.121Z,7.07
2018-08-28T14:56:32.081Z,6.47
2018-08-28T14:58:58.992Z,5.17
2018-08-28T15:01:25.972Z,5.63
2018-08-28T15:03:52.929Z,5.97
2018-08-28T15:06:19.865Z,5.53
2018-08-28T15:08:46.788Z,6.27
2018-08-28T15:11:13.699Z,5.10
2018-08-28T15:13:40.686Z,7.47
2018-08-28T15:16:07.607Z,4.80
2018-08-28T15:18:34.566Z,6.73
2018-08-28T15:21:01.603Z,8.37
2018-08-28T15:23:28.740Z,8.80
2018-08-28T15:25:55.644Z,6.20
2018-08-28T15:28:22.660Z,6.03
2018-08-28T15:30:49.602Z,6.47
2018-08-28T15:33:16.517Z,9.60
2018-08-28T15:35:43.427Z,6.40
2018-08-28T15:38:10.336Z,5.70
2018-08-28T15:40:37.240Z,6.10
2018-08-28T15:43:04.661Z,4.43
2018-08-28T15:45:31.512Z,7.00
2018-08-28T15:47:58.409Z,6.40
2018-08-28T15:50:25.561Z,6.60
2018-08-28T15:52:52.447Z,5.00
2018-08-28T15:55:19.355Z,6.40
2018-08-28T15:57:46.260Z,6.17
2018-08-28T16:00:13.154Z,7.53
2018-08-28T16:02:40.050Z,5.30
2018-08-28T16:05:06.988Z,6.47
2018-08-28T16:07:33.916Z,5.97
2018-08-28T16:10:00.826Z,5.20
2018-08-28T16:12:27.757Z,5.27
2018-08-28T16:14:54.661Z,6.47
2018-08-28T16:17:21.545Z,6.03
2018-08-28T16:19:48.485Z,5.23
2018-08-28T16:22:19.321Z,5.30
2018-08-28T16:24:46.271Z,5.17
2018-08-28T16:27:13.178Z,5.43
2018-08-28T16:29:40.102Z,4.07
2018-08-28T16:32:07.053Z,3.80
2018-08-28T16:34:34.607Z,5.10
2018-08-28T16:37:08.232Z,4.50
2018-08-28T16:39:35.244Z,5.30
2018-08-28T16:42:02.101Z,4.37
2018-08-28T16:44:29.069Z,4.30
2018-08-28T16:46:56.052Z,5.60
2018-08-28T16:49:22.943Z,5.57
2018-08-28T16:51:49.887Z,5.80
2018-08-28T16:54:23.722Z,5.50
2018-08-28T16:56:50.639Z,4.57
2018-08-28T16:59:17.576Z,6.77
2018-08-28T17:01:44.504Z,5.90
2018-08-28T17:04:11.409Z,5.17
2018-08-28T17:06:38.322Z,5.63
2018-08-28T17:09:05.816Z,4.27
2018-08-28T17:11:32.745Z,5.70
2018-08-28T17:13:59.836Z,4.30
2018-08-28T17:16:27.570Z,4.67
2018-08-28T17:18:54.538Z,4.23
2018-08-28T17:21:21.457Z,7.60
2018-08-28T17:23:48.392Z,4.80
2018-08-28T17:26:15.324Z,6.40
2018-08-28T17:28:42.241Z,7.83
2018-08-28T17:31:09.275Z,6.30
2018-08-28T17:33:36.085Z,5.70
2018-08-28T17:36:03.009Z,7.33
2018-08-28T17:38:29.967Z,6.17
2018-08-28T17:40:56.908Z,6.20
2018-08-28T17:43:23.871Z,5.07
2018-08-28T17:45:50.835Z,8.83
2018-08-28T17:48:17.775Z,5.63
2018-08-28T17:50:44.696Z,5.43
2018-08-28T17:53:11.736Z,5.27
2018-08-28T17:55:39.651Z,5.70
2018-08-28T17:58:07.256Z,6.97
2018-08-28T18:00:34.244Z,5.33
2018-08-28T18:03:01.129Z,5.13
2018-08-28T18:05:28.061Z,6.33
2018-08-28T18:07:54.972Z,5.93
2018-08-28T18:10:21.892Z,4.47
2018-08-28T18:12:48.830Z,4.27
2018-08-28T18:15:15.964Z,6.63
2018-08-28T18:17:42.872Z,6.10
2018-08-28T18:20:09.791Z,5.23
2018-08-28T18:22:36.792Z,5.20
2018-08-28T18:25:03.625Z,5.43
2018-08-28T18:27:30.537Z,6.50
2018-08-28T18:29:57.809Z,6.67
2018-08-28T18:32:24.709Z,4.43
2018-08-28T18:34:51.597Z,4.67
2018-08-28T18:37:18.507Z,6.73
2018-08-28T18:39:45.412Z,5.43
2018-08-28T18:42:12.302Z,4.63
2018-08-28T18:44:39.211Z,4.83
2018-08-28T18:47:06.186Z,5.07
2018-08-28T18:49:33.015Z,5.80
2018-08-28T18:51:59.900Z,5.67
2018-08-28T18:54:26.832Z,6.87
2018-08-28T18:56:53.774Z,6.67
2018-08-28T18:59:20.657Z,5.37
2018-08-28T19:01:49.000Z,5.33
2018-08-28T19:04:15.884Z,7.20
2018-08-28T19:06:42.780Z,5.10
2018-08-28T19:09:09.721Z,5.03
2018-08-28T19:11:36.604Z,5.83
2018-08-28T19:14:03.516Z,6.00
2018-08-28T19:16:30.432Z,5.80
2018-08-28T19:18:57.336Z,6.27
2018-08-28T19:21:24.308Z,4.80
2018-08-28T19:23:51.219Z,5.63
2018-08-28T19:26:18.117Z,6.17
2018-08-28T19:28:44.992Z,6.50
2018-08-28T19:31:11.926Z,6.50
2018-08-28T19:33:38.834Z,7.40
2018-08-28T19:36:05.733Z,7.17
2018-08-28T19:38:32.669Z,7.50
2018-08-28T19:40:59.680Z,8.00
2018-08-28T19:43:26.626Z,10.37
2018-08-28T19:45:53.469Z,7.73
2018-08-28T19:48:20.389Z,7.00
2018-08-28T19:50:47.301Z,6.70
2018-08-28T19:53:14.208Z,7.97
2018-08-28T19:55:41.232Z,6.70
2018-08-28T19:58:08.160Z,8.63
2018-08-28T20:00:35.144Z,6.20
2018-08-28T20:03:05.473Z,7.80
2018-08-28T20:05:32.429Z,6.33
2018-08-28T20:07:59.337Z,6.00
2018-08-28T20:10:26.405Z,6.57
2018-08-28T20:12:54.512Z,6.47
2018-08-28T20:15:22.997Z,8.37
2018-08-28T20:17:49.896Z,5.70
2018-08-28T20:20:16.783Z,8.10
2018-08-28T20:22:43.750Z,6.37
2018-08-28T20:25:11.383Z,6.30
2018-08-28T20:27:39.755Z,5.47
2018-08-28T20:30:08.059Z,8.47
2018-08-28T20:32:35.131Z,5.20
2018-08-28T20:35:02.161Z,7.60
2018-08-28T20:37:29.787Z,7.33
2018-08-28T20:39:56.692Z,5.70
2018-08-28T20:42:23.648Z,6.70
2018-08-28T20:44:51.473Z,6.23
2018-08-28T20:47:18.947Z,7.20
2018-08-28T20:49:48.410Z,5.67
2018-08-28T20:52:18.937Z,7.37
2018-08-28T20:54:45.869Z,5.60
2018-08-28T20:57:13.513Z,6.93
2018-08-28T20:59:40.490Z,6.20
2018-08-28T21:02:08.514Z,5.40
2018-08-28T21:04:35.520Z,6.93
2018-08-28T21:07:02.483Z,6.20
2018-08-28T21:09:29.468Z,6.60
2018-08-28T21:11:56.464Z,6.27
2018-08-28T21:14:23.362Z,9.00
2018-08-28T21:16:50.268Z,5.93
2018-08-28T21:19:17.218Z,5.07
2018-08-28T21:21:44.132Z,8.23
2018-08-28T21:24:11.080Z,9.53
2018-08-28T21:26:37.980Z,9.77
2018-08-28T21:29:04.937Z,7.07
2018-08-28T21:31:31.805Z,10.33
2018-08-28T21:33:58.673Z,7.03
2018-08-28T21:36:25.578Z,10.60
2018-08-28T21:38:52.480Z,11.23
2018-08-28T21:41:19.455Z,9.63
2018-08-28T21:43:46.356Z,7.80
2018-08-28T21:46:13.240Z,9.43
2018-08-28T21:48:40.126Z,10.50
2018-08-28T21:51:07.066Z,8.10
2018-08-28T21:53:34.008Z,13.03
2018-08-28T21:56:00.911Z,15.70
2018-08-28T21:58:27.818Z,14.23
2018-08-28T22:01:00.429Z,14.23
2018-08-28T22:03:27.328Z,13.63
2018-08-28T22:05:54.228Z,12.00
2018-08-28T22:08:21.152Z,13.77
2018-08-28T22:10:48.044Z,8.20
2018-08-28T22:13:15.004Z,14.47
2018-08-28T22:15:41.889Z,11.30
2018-08-28T22:18:08.803Z,9.17
2018-08-28T22:20:35.706Z,10.33
2018-08-28T22:23:02.620Z,13.43
2018-08-28T22:25:29.537Z,12.07
2018-08-28T22:27:56.428Z,14.10
2018-08-28T22:30:23.340Z,12.77
2018-08-28T22:32:50.241Z,9.73
2018-08-28T22:35:17.135Z,11.07
2018-08-28T22:37:44.044Z,10.03
2018-08-28T22:40:11.671Z,7.87
2018-08-28T22:42:38.620Z,9.67
2018-08-28T22:45:05.667Z,9.43
2018-08-28T22:47:32.595Z,11.03
2018-08-28T22:49:59.498Z,9.90
2018-08-28T22:52:26.388Z,8.10
2018-08-28T22:54:53.287Z,6.93
2018-08-28T22:57:20.192Z,6.27
2018-08-28T22:59:47.079Z,6.93
2018-08-28T23:02:14.006Z,7.50
2018-08-28T23:04:40.905Z,6.47
2018-08-28T23:07:07.785Z,9.63
2018-08-28T23:09:34.669Z,9.43
2018-08-28T23:12:01.648Z,7.53
2018-08-28T23:14:28.544Z,6.13
2018-08-28T23:16:55.440Z,7.30
2018-08-28T23:19:22.329Z,7.03
2018-08-28T23:21:49.266Z,7.13
2018-08-28T23:24:16.205Z,8.07
2018-08-28T23:26:43.450Z,8.03
2018-08-28T23:29:10.388Z,7.37
2018-08-28T23:31:37.292Z,7.80
2018-08-28T23:34:04.253Z,6.73
2018-08-28T23:36:31.145Z,7.30
2018-08-28T23:38:58.069Z,7.10
2018-08-28T23:41:25.261Z,6.13
2018-08-28T23:43:52.181Z,7.67
2018-08-28T23:46:19.092Z,8.17
2018-08-28T23:48:46.033Z,9.37
2018-08-28T23:51:12.961Z,7.20
2018-08-28T23:53:39.864Z,6.93
2018-08-28T23:56:07.016Z,7.03
2018-08-28T23:58:33.951Z,8.67
